Terminal Aerodrome Forecast
Issued by NWS

Home | Current Version | Previous Version | Text Only | Print | Product List | Glossary On
Versions: 1 2 3 4 5 6 7 8 9 10 11 12 13 14 15
000
FTUS45 KRIW 010800 AAA
TAFCOD
TAF AMD
KCOD 010858Z 0109/0206 36009KT P6SM OVC008
     FM011500 VRB05KT P6SM SCT012
     FM011800 15008KT P6SM BKN250
     FM020300 25012G24KT P6SM BKN060
      AMD LTD TO CLD VIS AND WIND=

USA.gov is the U.S. government's official web portal to all federal, state and local government web resources and services.